Downstream station:
SHEF ID: INCM7 Indian Creek near Lanagan, MO
STATION TYPE:
PRECIP STAGE RIV-FLOW BAT-LOAD
in ft cfs volt
Ccp-Rev Ccp-Rev Ccp-Rev Ccp-Rev
(US/Central)
04/05 00:00 0.00 2.52 395 12.71
04/05 01:00 0.00 2.54 403 12.65
04/05 02:00 0.00 2.55 407 12.65
04/05 03:00 0.00 2.57 416 12.65
04/05 04:00 0.00 2.57 416 12.60
04/05 05:00 0.00 2.58 420 12.60
04/05 06:00 0.00 2.58 420 12.60
04/05 07:00 0.00 2.60 428 12.54
04/05 08:00 0.00 2.59 424 12.54
04/05 09:00 0.00 2.61 433 12.89
04/05 10:00 0.00 2.60 428 13.30
04/05 11:00 0.00 2.61 433 13.71
04/05 12:00 0.00 2.64 446 13.59
04/05 13:00 0.00 2.62 437 13.65
04/05 14:00 0.00 2.62 437 13.53
04/05 15:00 0.00 2.62 437 13.53
04/05 16:00 0.00 2.61 433 13.53
04/05 17:00 0.00 2.63 441 13.42
04/05 18:00 0.00 2.62 437 13.18
04/05 19:00 0.00 2.62 437 13.53
04/05 20:00 0.00 2.62 437 12.89
04/05 21:00 0.00 2.63 441 12.83
04/05 22:00 0.00 2.61 433 12.77
04/05 23:00 0.00 2.63 441 12.71